ROMMA est une association bénévole à but non lucratif. Votre soutien est indispensable : ADHERER à ROMMA ou FAIRE un DON

Crest - (26, Drôme)

Vallée de la Drôme (315 m)   Longitude: 5°2' E   Latitude: 44°44' N Station partenaire n°62
 

Détail journalier du     <<     >>

Température Precipitation Humidité Pression Vent Dir Rafale Dir. rafale Ensol.
Heure (°C) (mm) (%) (hPa) (km/h) (km/h) (min)
01:00 4.60.89110036ENE19ENE0
02:00 4.70.38910049ENE21ENE0
03:00 4.60.39010046E15E0
04:00 4.708910046ESE18E0
05:00 4.808910047ESE16ESE0
06:00 4.608910044ESE13ESE0
07:00 5.108810053ESE15ESE0
08:00 5.208910063ESE16ESE0
09:00 5.608910074ESE15ESE0
10:00 7.308510083ESE11ESE13
11:00 7.308510105SE21SSO6
12:00 8.408410108SSO27SSO0
13:00 8.60.58910102ENE8S0
14:00 8.709210112SE8SE0
15:00 10.208610113SE8SE47
16:00 9.708810114SSO11S31
17:00 8.609010121SSE6SSE11
18:00 8.809210122ENE13ESE0
19:00 8.808910125ESE16ESE0
20:00 9.008910125SE16ESE0
21:00 8.908810125ESE16ESE0
22:00 9.008710133ESE15ESE0
23:00 8.908710125ESE19ESE0
minuit 8.708510127ESE16ESE0

Graphique du 14-12-2019

 

Serveur OMMA